Time;durP1;ratioP1;P1;durP2;ratioP2;P2;SDS_P1;SDS_P2;PMS_P1;PMS_P2;Temp;Humidity;BMP_temperature;BMP_pressure;BME280_temperature;BME280_humidity;BME280_pressure;Samples;Min_cycle;Max_cycle;Signal;HPM_P1;HPM_P2
2021/10/08 07:15:42;;;;;;;;;;;;;;;9.84;59.86;101525.59;1369544;86;20477;31
2021/10/08 07:18:14;;;;;;;;;;;;;;;10.03;58.92;101528.14;1368804;87;21461;31
2021/10/08 07:20:43;;;;;;;;;;;;;;;10.22;58.57;101533.72;1372499;88;22142;31
2021/10/08 07:23:11;;;;;;;;;;;;;;;10.46;56.67;101540.74;1366013;86;20233;31
2021/10/08 07:25:40;;;;;;;;;;;;;;;10.61;55.12;101534.23;1386226;86;20998;31
2021/10/08 07:28:10;;;;;;;;;;;;;;;10.76;54.70;101536.14;1381500;86;21030;31
2021/10/08 07:30:40;;;;;;;;;;;;;;;10.90;53.84;101536.38;1384648;86;20424;31
2021/10/08 07:33:09;;;;;;;;;;;;;;;11.11;54.65;101536.48;1388561;86;22168;31
2021/10/08 07:35:39;;;;;;;;;;;;;;;11.25;52.76;101539.69;1386860;86;20261;31
2021/10/08 07:38:05;;;;;;;;;;;;;;;11.48;53.54;101536.97;1385963;86;20283;-86
2021/10/08 07:40:31;;;;;;;;;;;;;;;11.71;54.14;101541.20;1343221;91;20253;-88
2021/10/08 07:42:57;;;;;;;;;;;;;;;11.93;52.90;101532.79;1343166;93;20359;-88
2021/10/08 07:45:23;;;;;;;;;;;;;;;12.10;52.30;101534.86;1345917;91;20246;-87
2021/10/08 07:47:49;;;;;;;;;;;;;;;12.38;51.52;101535.16;1343970;92;20307;-87
2021/10/08 07:50:15;;;;;;;;;;;;;;;12.43;49.69;101540.92;1327899;93;20769;-87
2021/10/08 07:52:42;;;;;;;;;;;;;;;12.68;50.79;101542.27;1342526;92;21201;-89
2021/10/08 07:55:11;;;;;;;;;;;;;;;12.86;49.19;101537.17;1380262;86;20207;31
2021/10/08 08:00:09;;;;;;;;;;;;;;;13.15;46.85;101535.91;1348257;89;20251;31
2021/10/08 08:02:37;;;;;;;;;;;;;;;13.37;47.61;101533.50;1373942;86;21839;31
2021/10/08 08:05:06;;;;;;;;;;;;;;;13.66;55.81;101537.98;1397401;86;20353;31
2021/10/08 08:07:46;;;;;;;;;;;;;;;13.79;47.71;101535.89;1371586;86;20306;31
2021/10/08 08:13:11;;;;;;;;;;;;;;;13.95;44.68;101532.63;1389797;86;20379;31
2021/10/08 08:18:17;;;;;;;;;;;;;;;14.32;46.36;101527.36;1401393;86;20344;31
2021/10/08 08:20:49;;;;;;;;;;;;;;;14.37;41.96;101529.09;1398899;86;20269;31
2021/10/08 08:23:17;;;;;;;;;;;;;;;14.47;42.26;101528.22;1405746;88;20187;-91
2021/10/08 08:28:14;;;;;;;;;;;;;;;14.74;41.43;101528.78;1402279;86;20415;31
2021/10/08 08:30:43;;;;;;;;;;;;;;;14.88;43.64;101522.95;1384182;86;20525;31
2021/10/08 08:33:13;;;;;;;;;;;;;;;14.98;40.67;101521.55;1375426;86;20453;31
2021/10/08 08:35:43;;;;;;;;;;;;;;;14.98;40.30;101516.22;1376031;86;20417;31
2021/10/08 08:38:09;;;;;;;;;;;;;;;15.17;40.96;101523.27;1377782;88;21571;31
2021/10/08 08:40:40;;;;;;;;;;;;;;;15.38;39.10;101518.96;1374530;86;20264;31
2021/10/08 08:43:08;;;;;;;;;;;;;;;15.57;41.15;101508.97;1357650;86;20362;31
2021/10/08 08:45:38;;;;;;;;;;;;;;;15.76;39.77;101503.97;1375669;88;20433;31
2021/10/08 08:50:40;;;;;;;;;;;;;;;16.00;37.87;101500.66;1360895;87;20311;31
2021/10/08 08:53:09;;;;;;;;;;;;;;;16.16;38.78;101501.23;1365301;87;20280;31
2021/10/08 08:55:38;;;;;;;;;;;;;;;16.03;37.11;101488.83;1382381;87;20321;31
2021/10/08 08:58:06;;;;;;;;;;;;;;;16.18;37.54;101496.58;1381252;87;20252;31
2021/10/08 09:00:35;;;;;;;;;;;;;;;16.15;37.12;101497.41;1366690;88;20277;31
2021/10/08 09:03:07;;;;;;;;;;;;;;;16.15;37.58;101488.89;1362983;89;20223;31
2021/10/08 09:05:34;;;;;;;;;;;;;;;16.36;36.47;101497.84;1367899;88;20321;31
2021/10/08 09:08:06;;;;;;;;;;;;;;;16.54;37.03;101495.07;1351408;87;20345;31
2021/10/08 09:15:38;;;;;;;;;;;;;;;17.77;34.65;101478.74;1387946;87;20322;31
2021/10/08 09:18:09;;;;;;;;;;;;;;;18.14;34.91;101476.55;1389694;87;20278;-90
2021/10/08 09:20:41;;;;;;;;;;;;;;;18.88;34.29;101480.61;1369200;87;20297;31
2021/10/08 09:23:09;;;;;;;;;;;;;;;19.25;32.66;101479.04;1386861;86;21469;31
2021/10/08 09:25:39;;;;;;;;;;;;;;;19.26;29.88;101479.86;1368664;87;20256;31
2021/10/08 09:28:10;;;;;;;;;;;;;;;20.06;30.23;101473.97;1385971;86;22021;31
2021/10/08 09:30:46;;;;;;;;;;;;;;;19.95;29.04;101469.05;1377934;87;20317;-91
2021/10/08 09:35:44;;;;;;;;;;;;;;;20.75;28.61;101472.83;1395303;87;20432;31
2021/10/08 09:38:16;;;;;;;;;;;;;;;20.18;26.99;101459.05;1368036;86;21812;31
2021/10/08 09:40:57;;;;;;;;;;;;;;;20.53;28.25;101467.38;1382301;87;20293;-90
2021/10/08 09:43:27;;;;;;;;;;;;;;;21.07;27.95;101461.58;1405399;85;20229;-91
2021/10/08 09:46:00;;;;;;;;;;;;;;;20.78;27.34;101462.52;1401861;88;20260;-92
2021/10/08 09:48:42;;;;;;;;;;;;;;;21.35;26.95;101455.44;1398619;87;20243;-91
2021/10/08 09:51:21;;;;;;;;;;;;;;;21.61;25.40;101452.16;1392530;88;20207;-92
2021/10/08 09:53:52;;;;;;;;;;;;;;;21.29;25.68;101451.66;1392327;87;20234;31
2021/10/08 09:56:39;;;;;;;;;;;;;;;21.67;25.67;101450.55;1369046;88;20267;-89
2021/10/08 09:59:08;;;;;;;;;;;;;;;21.16;25.72;101448.83;1359694;91;20811;-92
2021/10/08 10:01:36;;;;;;;;;;;;;;;21.78;26.57;101445.94;1359513;90;20237;-90
2021/10/08 10:04:10;;;;;;;;;;;;;;;21.85;25.98;101444.13;1359379;90;20893;-92
2021/10/08 10:06:38;;;;;;;;;;;;;;;22.03;25.26;101445.78;1359244;90;20319;-91
2021/10/08 10:09:08;;;;;;;;;;;;;;;21.59;25.75;101445.61;1359260;90;20253;-93
2021/10/08 10:18:20;;;;;;;;;;;;;;;20.94;25.89;101434.52;1353775;87;20763;-89
2021/10/08 10:20:52;;;;;;;;;;;;;;;21.14;25.86;101434.20;1357587;91;20235;-91
2021/10/08 10:23:22;;;;;;;;;;;;;;;21.22;26.60;101435.11;1358079;91;20248;-93
2021/10/08 10:25:54;;;;;;;;;;;;;;;21.18;26.91;101427.94;1357602;91;20777;-91
2021/10/08 10:28:21;;;;;;;;;;;;;;;21.12;27.20;101423.34;1357615;91;20324;-91
2021/10/08 10:30:51;;;;;;;;;;;;;;;21.34;25.97;101424.13;1357545;91;20335;-93
2021/10/08 10:33:24;;;;;;;;;;;;;;;21.65;25.99;101429.17;1357417;91;20265;-91
2021/10/08 10:35:54;;;;;;;;;;;;;;;21.29;25.12;101425.22;1356907;90;20370;-94
2021/10/08 10:38:26;;;;;;;;;;;;;;;21.37;26.85;101431.84;1356784;90;20256;-91
2021/10/08 10:41:13;;;;;;;;;;;;;;;21.52;26.04;101433.96;1357208;91;20249;-93
2021/10/08 10:43:44;;;;;;;;;;;;;;;21.37;25.35;101427.30;1357742;90;20248;-92
2021/10/08 10:46:36;;;;;;;;;;;;;;;21.60;26.59;101436.48;1357251;91;20718;-91
2021/10/08 10:49:27;;;;;;;;;;;;;;;21.61;25.39;101435.48;1356735;91;20325;-92
2021/10/08 10:52:09;;;;;;;;;;;;;;;21.32;25.81;101438.30;1356924;91;20256;-92
2021/10/08 10:54:49;;;;;;;;;;;;;;;21.25;25.06;101432.86;1357433;91;20295;-92
2021/10/08 10:57:23;;;;;;;;;;;;;;;21.42;25.55;101422.69;1357407;91;20241;-93
2021/10/08 10:59:49;;;;;;;;;;;;;;;21.81;26.89;101428.88;1355722;91;20286;-92
2021/10/08 11:02:25;;;;;;;;;;;;;;;21.61;25.52;101423.36;1357046;91;20332;-92
2021/10/08 11:04:55;;;;;;;;;;;;;;;21.87;24.37;101423.22;1357380;91;20295;-93
2021/10/08 11:07:23;;;;;;;;;;;;;;;21.92;25.85;101426.13;1356037;91;20227;-93
2021/10/08 11:10:08;;;;;;;;;;;;;;;22.20;24.95;101426.63;1357161;91;20257;-93
2021/10/08 11:13:00;;;;;;;;;;;;;;;22.34;24.81;101429.70;1356464;90;20256;-92
2021/10/08 11:15:25;;;;;;;;;;;;;;;21.84;24.12;101421.75;1354915;91;20338;-91
2021/10/08 11:17:57;;;;;;;;;;;;;;;21.60;24.49;101423.53;1356759;91;20279;-93
2021/10/08 11:20:37;;;;;;;;;;;;;;;22.03;24.29;101419.36;1365064;90;20784;-92
2021/10/08 11:23:07;;;;;;;;;;;;;;;22.23;24.36;101423.53;1364717;90;20234;-91
2021/10/08 11:25:37;;;;;;;;;;;;;;;22.22;24.12;101432.66;1364581;90;20286;-91
2021/10/08 11:28:03;;;;;;;;;;;;;;;22.03;24.13;101422.88;1363359;92;20456;-92
2021/10/08 11:30:29;;;;;;;;;;;;;;;21.77;24.35;101419.51;1363825;91;20233;-91
2021/10/08 11:32:57;;;;;;;;;;;;;;;21.89;24.35;101422.48;1363093;91;20248;-90
2021/10/08 11:35:32;;;;;;;;;;;;;;;21.06;24.29;101422.73;1356730;91;20264;-92
2021/10/08 11:37:59;;;;;;;;;;;;;;;21.50;24.27;101414.98;1355717;91;20249;-91
2021/10/08 11:40:41;;;;;;;;;;;;;;;21.84;24.57;101426.31;1356289;91;20301;-92
2021/10/08 11:43:10;;;;;;;;;;;;;;;22.09;23.87;101421.25;1356052;91;20346;-93
2021/10/08 11:45:49;;;;;;;;;;;;;;;22.63;22.72;101422.34;1354356;91;20227;-93
2021/10/08 11:48:13;;;;;;;;;;;;;;;22.87;22.95;101414.19;1353679;91;20859;-93
2021/10/08 11:53:06;;;;;;;;;;;;;;;22.96;23.58;101427.34;1355619;91;20234;-92
2021/10/08 11:55:40;;;;;;;;;;;;;;;23.25;21.76;101421.23;1355217;91;20368;-93
2021/10/08 11:58:08;;;;;;;;;;;;;;;23.39;21.73;101409.39;1352530;91;20770;-92
2021/10/08 12:00:44;;;;;;;;;;;;;;;23.45;21.93;101408.23;1354441;91;20227;-94
2021/10/08 12:03:12;;;;;;;;;;;;;;;22.86;21.75;101417.41;1355057;91;20319;-91
2021/10/08 12:06:04;;;;;;;;;;;;;;;23.57;21.92;101417.38;1355091;91;20241;-92
2021/10/08 12:08:36;;;;;;;;;;;;;;;23.51;21.24;101414.17;1354426;91;20249;-92
2021/10/08 12:11:13;;;;;;;;;;;;;;;23.49;21.52;101417.59;1355014;91;20219;-92
2021/10/08 12:13:50;;;;;;;;;;;;;;;23.83;20.98;101409.25;1354319;91;20249;-93
2021/10/08 12:17:10;;;;;;;;;;;;;;;23.85;21.66;101409.88;1354242;91;20323;-92
2021/10/08 12:19:36;;;;;;;;;;;;;;;23.28;21.51;101415.42;1355582;91;20279;-94
2021/10/08 12:22:03;;;;;;;;;;;;;;;24.01;21.53;101405.05;1362002;92;20754;-91
2021/10/08 12:24:32;;;;;;;;;;;;;;;23.74;20.31;101409.17;1361912;91;20384;-90
2021/10/08 12:27:04;;;;;;;;;;;;;;;23.37;20.20;101406.06;1362536;91;20273;-92
2021/10/08 12:29:44;;;;;;;;;;;;;;;23.89;20.66;101399.47;1353394;91;20917;-93
2021/10/08 12:32:12;;;;;;;;;;;;;;;23.22;19.64;101405.45;1353703;91;20257;-92
2021/10/08 12:34:46;;;;;;;;;;;;;;;24.08;20.76;101403.13;1353971;91;20234;-92
2021/10/08 12:37:16;;;;;;;;;;;;;;;24.49;19.14;101396.56;1354051;91;20248;-92
2021/10/08 12:40:01;;;;;;;;;;;;;;;25.02;20.14;101400.27;1354801;92;20844;-92
2021/10/08 12:42:34;;;;;;;;;;;;;;;25.37;18.53;101399.81;1354454;91;20739;-92
2021/10/08 12:45:01;;;;;;;;;;;;;;;25.24;18.00;101401.30;1355222;91;20242;-93
2021/10/08 12:47:39;;;;;;;;;;;;;;;25.26;17.76;101397.32;1353954;91;20271;-93
2021/10/08 12:50:08;;;;;;;;;;;;;;;25.11;18.00;101397.59;1338591;93;20785;-92
2021/10/08 12:52:46;;;;;;;;;;;;;;;24.99;18.30;101393.41;1356591;91;20226;-94
2021/10/08 12:55:13;;;;;;;;;;;;;;;24.68;17.52;101403.72;1355037;91;20837;-91
2021/10/08 12:58:11;;;;;;;;;;;;;;;25.46;16.57;101398.47;1355874;91;20248;-93
2021/10/08 13:00:52;;;;;;;;;;;;;;;25.42;16.20;101395.91;1357622;89;20332;-93
2021/10/08 13:03:35;;;;;;;;;;;;;;;25.63;17.03;101398.19;1335114;93;20321;-90
2021/10/08 13:06:03;;;;;;;;;;;;;;;25.63;15.98;101393.30;1334830;93;20354;-90
2021/10/08 13:08:32;;;;;;;;;;;;;;;25.96;16.26;101394.34;1331226;93;20296;-89
2021/10/08 13:11:05;;;;;;;;;;;;;;;26.09;15.55;101395.53;1330428;94;20273;-91
2021/10/08 13:13:38;;;;;;;;;;;;;;;25.47;14.83;101390.66;1321273;94;20377;-91
2021/10/08 13:16:07;;;;;;;;;;;;;;;25.52;16.18;101390.83;1334665;93;20358;-89
2021/10/08 13:18:44;;;;;;;;;;;;;;;26.00;18.01;101395.54;1336889;93;20326;-95
2021/10/08 13:26:25;;;;;;;;;;;;;;;26.89;15.75;101395.00;1393975;86;20475;-94
2021/10/08 13:28:52;;;;;;;;;;;;;;;26.31;15.58;101389.64;1393905;88;20270;-93
2021/10/08 13:31:20;;;;;;;;;;;;;;;26.29;16.17;101391.74;1385754;87;20252;-91
2021/10/08 13:33:46;;;;;;;;;;;;;;;26.68;16.13;101385.52;1380287;88;20247;-91
2021/10/08 13:36:12;;;;;;;;;;;;;;;26.15;15.68;101387.54;1372826;90;20254;-93
2021/10/08 13:38:38;;;;;;;;;;;;;;;25.69;16.11;101384.80;1378824;90;20716;-93
2021/10/08 13:41:04;;;;;;;;;;;;;;;25.53;16.29;101388.41;1388526;89;20304;-92
2021/10/08 13:43:31;;;;;;;;;;;;;;;25.21;16.86;101389.84;1378848;88;20389;-93
2021/10/08 13:45:57;;;;;;;;;;;;;;;24.98;17.38;101384.17;1374467;90;20232;-92
2021/10/08 13:48:23;;;;;;;;;;;;;;;24.82;17.33;101386.88;1375242;90;20240;-95
2021/10/08 13:50:49;;;;;;;;;;;;;;;23.86;18.07;101377.74;1371360;90;20331;-92
2021/10/08 13:53:18;;;;;;;;;;;;;;;23.66;18.71;101374.23;1370320;89;20242;-90
2021/10/08 13:55:44;;;;;;;;;;;;;;;22.72;20.11;101377.42;1370799;90;20250;-91
2021/10/08 13:58:11;;;;;;;;;;;;;;;22.47;19.63;101377.66;1357537;91;20257;-93
2021/10/08 14:00:50;;;;;;;;;;;;;;;22.63;19.95;101372.43;1373954;87;21634;31
2021/10/08 14:10:52;;;;;;;;;;;;;;;22.69;20.62;101369.73;1370635;86;20252;-93
2021/10/08 14:13:18;;;;;;;;;;;;;;;22.87;20.25;101366.46;1400437;86;20512;-93
2021/10/08 14:15:44;;;;;;;;;;;;;;;22.94;20.35;101369.98;1361701;91;20257;-94
2021/10/08 14:18:10;;;;;;;;;;;;;;;23.08;19.23;101363.28;1344746;91;20236;-94
2021/10/08 14:20:36;;;;;;;;;;;;;;;23.25;19.00;101367.23;1362228;91;20251;-94
2021/10/08 14:23:03;;;;;;;;;;;;;;;23.40;18.78;101363.77;1359391;90;20815;-94
2021/10/08 14:25:29;;;;;;;;;;;;;;;23.97;17.67;101360.56;1352683;91;20256;-95
2021/10/08 14:27:55;;;;;;;;;;;;;;;24.24;18.88;101370.21;1361297;91;20376;-94
2021/10/08 14:30:21;;;;;;;;;;;;;;;24.15;18.72;101365.27;1361495;91;20270;-94
2021/10/08 14:32:47;;;;;;;;;;;;;;;24.83;18.38;101365.54;1361283;91;20249;-93
2021/10/08 14:35:14;;;;;;;;;;;;;;;24.85;17.97;101351.77;1360151;91;20830;-95
2021/10/08 14:37:40;;;;;;;;;;;;;;;25.24;17.17;101358.77;1361610;91;20249;-94
2021/10/08 14:40:07;;;;;;;;;;;;;;;25.23;16.98;101354.92;1361043;91;20309;-94
2021/10/08 14:42:33;;;;;;;;;;;;;;;25.58;17.73;101362.82;1362266;91;20235;-95
2021/10/08 14:44:59;;;;;;;;;;;;;;;24.82;18.11;101358.98;1360795;91;20718;-94
2021/10/08 14:47:25;;;;;;;;;;;;;;;24.83;17.01;101360.62;1360517;90;20741;-95
2021/10/08 14:49:51;;;;;;;;;;;;;;;24.73;16.99;101359.23;1365130;90;20302;-93
2021/10/08 14:52:19;;;;;;;;;;;;;;;24.67;16.97;101358.77;1361765;90;20227;-94
2021/10/08 14:57:40;;;;;;;;;;;;;;;23.60;18.71;101354.81;1361977;90;20287;-93
2021/10/08 14:59:56;;;;;;;;;;;;;;;23.11;19.97;101351.55;1363933;91;20250;-94
2021/10/08 15:02:23;;;;;;;;;;;;;;;22.45;20.56;101357.66;1391819;87;20253;-94
2021/10/08 15:04:52;;;;;;;;;;;;;;;22.06;21.20;101359.13;1388324;86;20335;31
2021/10/08 15:07:24;;;;;;;;;;;;;;;21.96;21.35;101361.91;1391990;86;20387;31
2021/10/08 15:09:56;;;;;;;;;;;;;;;21.67;21.40;101357.09;1389577;86;20549;31
2021/10/08 15:12:22;;;;;;;;;;;;;;;21.73;22.22;101360.85;1388308;89;20197;-91
2021/10/08 15:14:48;;;;;;;;;;;;;;;21.18;22.64;101360.13;1385145;89;20264;-92
2021/10/08 15:17:15;;;;;;;;;;;;;;;21.10;23.11;101361.61;1380752;89;20240;-88
2021/10/08 15:19:42;;;;;;;;;;;;;;;21.22;23.25;101361.09;1355363;92;20882;-88
2021/10/08 15:22:08;;;;;;;;;;;;;;;21.11;23.81;101360.58;1380595;89;20227;-88
2021/10/08 15:24:34;;;;;;;;;;;;;;;20.93;23.53;101357.01;1380164;88;20397;-88
2021/10/08 15:27:00;;;;;;;;;;;;;;;20.67;25.09;101364.31;1380547;89;20241;-89
2021/10/08 15:29:26;;;;;;;;;;;;;;;20.13;25.36;101364.70;1380614;88;20257;-88
2021/10/08 15:31:52;;;;;;;;;;;;;;;19.47;26.59;101367.78;1380494;89;20360;-88
2021/10/08 15:34:19;;;;;;;;;;;;;;;19.00;27.52;101372.91;1374433;89;20764;-87
2021/10/08 15:36:46;;;;;;;;;;;;;;;18.49;28.20;101378.74;1367215;88;20319;-88
2021/10/08 15:39:12;;;;;;;;;;;;;;;18.08;28.91;101378.12;1341461;91;20291;-87
2021/10/08 15:41:38;;;;;;;;;;;;;;;17.67;29.90;101387.59;1359653;91;20241;-87
2021/10/08 15:44:04;;;;;;;;;;;;;;;17.25;31.35;101382.78;1349035;90;20335;-87
2021/10/08 15:46:30;;;;;;;;;;;;;;;16.95;30.64;101380.79;1322648;94;20291;-87
2021/10/08 15:48:56;;;;;;;;;;;;;;;16.64;32.87;101381.38;1350508;91;20861;-87
2021/10/08 15:51:22;;;;;;;;;;;;;;;16.23;33.56;101384.77;1349941;91;20265;-87
2021/10/08 15:53:48;;;;;;;;;;;;;;;15.92;34.34;101384.97;1348739;92;20259;-87
2021/10/08 15:56:14;;;;;;;;;;;;;;;15.62;35.31;101385.75;1348363;91;20816;-87
2021/10/08 15:58:40;;;;;;;;;;;;;;;15.31;36.41;101383.55;1361402;91;20257;-87
2021/10/08 16:01:06;;;;;;;;;;;;;;;15.06;36.49;101385.67;1373657;89;20240;-88
2021/10/08 16:03:32;;;;;;;;;;;;;;;14.84;36.81;101381.64;1341407;92;20253;-87
2021/10/08 16:05:58;;;;;;;;;;;;;;;14.66;37.52;101394.95;1330411;93;20819;-87
2021/10/08 16:08:24;;;;;;;;;;;;;;;14.43;39.79;101392.67;1361815;90;20258;-87
2021/10/08 16:10:52;;;;;;;;;;;;;;;14.20;38.95;101392.23;1339213;91;20261;-87
2021/10/08 16:13:18;;;;;;;;;;;;;;;13.97;39.84;101394.45;1362998;90;21161;-87
2021/10/08 16:15:44;;;;;;;;;;;;;;;13.77;40.15;101396.83;1362733;90;20272;-87
2021/10/08 16:18:20;;;;;;;;;;;;;;;13.60;40.34;101401.56;1362760;90;20250;-86
2021/10/08 16:20:45;;;;;;;;;;;;;;;13.42;41.39;101399.64;1362287;90;20335;-87
2021/10/08 16:23:11;;;;;;;;;;;;;;;13.24;42.72;101401.33;1362423;91;20249;-87
2021/10/08 16:25:37;;;;;;;;;;;;;;;13.05;43.49;101413.62;1362487;90;20249;-86
2021/10/08 16:28:04;;;;;;;;;;;;;;;12.82;45.55;101408.23;1362412;90;20241;-87
2021/10/08 16:30:30;;;;;;;;;;;;;;;12.58;46.19;101416.59;1362672;90;20228;-87
2021/10/08 16:32:56;;;;;;;;;;;;;;;12.40;46.66;101417.73;1362652;90;20332;-88
2021/10/08 16:35:24;;;;;;;;;;;;;;;12.18;47.88;101422.26;1362411;91;20294;-87
2021/10/08 16:37:50;;;;;;;;;;;;;;;11.99;48.25;101427.47;1364807;90;20376;-87
2021/10/08 16:40:17;;;;;;;;;;;;;;;11.79;49.03;101429.64;1362572;90;20295;-87
2021/10/08 16:42:43;;;;;;;;;;;;;;;11.64;49.72;101433.12;1362368;91;20272;-87
2021/10/08 16:45:18;;;;;;;;;;;;;;;11.48;50.12;101438.40;1362453;90;20302;-88
2021/10/08 16:47:44;;;;;;;;;;;;;;;11.21;49.14;101444.17;1362365;90;20243;-87
2021/10/08 16:50:10;;;;;;;;;;;;;;;11.19;47.23;101446.13;1362378;90;20286;-87
2021/10/08 16:52:36;;;;;;;;;;;;;;;11.18;48.87;101456.84;1362436;90;20257;-87
2021/10/08 16:55:04;;;;;;;;;;;;;;;11.12;47.83;101444.94;1362507;90;20251;-87
2021/10/08 16:57:30;;;;;;;;;;;;;;;11.09;48.06;101447.84;1359975;91;20421;-87
2021/10/08 16:59:56;;;;;;;;;;;;;;;11.05;47.95;101453.05;1328606;92;20299;-87
2021/10/08 17:02:22;;;;;;;;;;;;;;;11.01;48.74;101451.11;1365745;90;20234;-87
2021/10/08 17:04:48;;;;;;;;;;;;;;;10.99;48.16;101454.84;1363011;90;20310;-87
2021/10/08 17:07:14;;;;;;;;;;;;;;;10.93;48.64;101467.27;1315507;95;20246;-87
2021/10/08 17:09:40;;;;;;;;;;;;;;;10.88;48.55;101468.98;1329238;92;20247;-87
2021/10/08 17:12:06;;;;;;;;;;;;;;;10.86;48.45;101472.72;1338584;92;20937;-87
2021/10/08 17:14:33;;;;;;;;;;;;;;;10.82;48.74;101470.31;1343989;92;20275;-86
2021/10/08 17:16:59;;;;;;;;;;;;;;;10.79;48.91;101475.86;1343819;92;20239;-88
2021/10/08 17:19:25;;;;;;;;;;;;;;;10.75;48.39;101473.08;1351354;92;20341;-87
2021/10/08 17:21:51;;;;;;;;;;;;;;;10.75;49.10;101473.08;1344075;92;20252;-87
2021/10/08 17:24:29;;;;;;;;;;;;;;;10.69;49.86;101481.52;1351482;92;20289;-87
2021/10/08 17:29:54;;;;;;;;;;;;;;;10.60;48.07;101488.88;1364333;90;20385;-87
2021/10/08 17:34:56;;;;;;;;;;;;;;;10.51;46.71;101493.09;1354900;91;20258;-87
2021/10/08 17:37:22;;;;;;;;;;;;;;;10.52;47.49;101497.91;1355015;90;20344;-87
2021/10/08 17:39:48;;;;;;;;;;;;;;;10.51;47.06;101498.88;1349528;92;20298;-87
2021/10/08 17:42:15;;;;;;;;;;;;;;;10.49;46.54;101503.44;1366448;92;20331;-86
2021/10/08 17:44:41;;;;;;;;;;;;;;;10.48;47.19;101507.06;1357344;93;20937;-86
2021/10/08 17:47:07;;;;;;;;;;;;;;;10.45;46.67;101514.76;1377113;89;20256;-87
2021/10/08 17:49:34;;;;;;;;;;;;;;;10.40;46.92;101516.92;1376623;89;20256;-86
2021/10/08 17:52:01;;;;;;;;;;;;;;;10.30;47.98;101514.16;1376161;89;20248;-87
2021/10/08 17:54:27;;;;;;;;;;;;;;;10.24;47.68;101514.61;1374834;90;20236;-87
2021/10/08 17:56:53;;;;;;;;;;;;;;;10.16;48.24;101518.31;1370115;91;20288;-87
2021/10/08 17:59:19;;;;;;;;;;;;;;;10.08;48.77;101516.73;1370868;91;20274;-87
2021/10/08 18:01:46;;;;;;;;;;;;;;;10.01;48.81;101516.83;1372205;90;20294;-87
2021/10/08 18:04:15;;;;;;;;;;;;;;;9.92;49.50;101518.37;1383610;91;21237;-87
2021/10/08 18:06:44;;;;;;;;;;;;;;;9.82;49.33;101520.89;1388003;89;20837;-87
2021/10/08 18:09:11;;;;;;;;;;;;;;;9.74;48.88;101515.81;1386536;89;20220;-87
2021/10/08 18:11:37;;;;;;;;;;;;;;;9.64;49.14;101514.36;1381993;89;20304;-88
2021/10/08 18:14:04;;;;;;;;;;;;;;;9.55;49.67;101522.94;1387566;88;20363;-85
2021/10/08 18:16:31;;;;;;;;;;;;;;;9.43;49.55;101518.93;1385502;89;20338;-87
2021/10/08 18:19:01;;;;;;;;;;;;;;;9.37;49.84;101522.52;1382444;89;20264;-87
2021/10/08 18:21:27;;;;;;;;;;;;;;;9.28;49.55;101524.03;1383206;89;20775;-87
2021/10/08 18:23:54;;;;;;;;;;;;;;;9.20;49.58;101526.39;1382956;89;20241;-87
2021/10/08 18:26:35;;;;;;;;;;;;;;;9.12;49.85;101525.64;1382476;89;21181;-87
2021/10/08 18:29:09;;;;;;;;;;;;;;;9.03;49.49;101527.16;1381656;89;20747;-86
2021/10/08 18:31:32;;;;;;;;;;;;;;;8.94;49.88;101533.08;1363876;91;20321;-87
2021/10/08 18:33:58;;;;;;;;;;;;;;;8.85;50.51;101536.38;1372656;90;20309;-87
2021/10/08 18:36:24;;;;;;;;;;;;;;;8.78;50.16;101543.06;1375573;89;20263;-87
2021/10/08 18:38:50;;;;;;;;;;;;;;;8.69;50.74;101543.69;1395985;88;20339;-88
2021/10/08 18:41:18;;;;;;;;;;;;;;;8.61;51.16;101549.52;1395543;88;20246;-87
2021/10/08 18:43:44;;;;;;;;;;;;;;;8.53;51.12;101555.33;1396172;88;20254;-87
2021/10/08 18:46:10;;;;;;;;;;;;;;;8.48;51.22;101557.43;1387807;88;20330;-87
2021/10/08 18:48:36;;;;;;;;;;;;;;;8.42;50.89;101564.45;1377087;89;20249;-88
2021/10/08 18:51:03;;;;;;;;;;;;;;;8.40;51.02;101568.15;1377351;89;20828;-87
2021/10/08 18:53:51;;;;;;;;;;;;;;;8.37;50.99;101571.80;1377335;89;20233;-87
2021/10/08 18:56:17;;;;;;;;;;;;;;;8.38;50.86;101577.47;1388092;91;20942;-87
2021/10/08 18:58:44;;;;;;;;;;;;;;;8.39;51.66;101581.81;1401752;88;20236;-88
2021/10/08 19:01:09;;;;;;;;;;;;;;;8.37;52.12;101586.31;1392653;88;20249;-88
2021/10/08 19:03:38;;;;;;;;;;;;;;;8.29;51.77;101584.70;1371453;89;20881;-88
2021/10/08 19:06:03;;;;;;;;;;;;;;;8.22;51.35;101584.73;1338177;93;20269;-88
2021/10/08 19:08:31;;;;;;;;;;;;;;;8.12;51.64;101585.36;1373816;90;21257;-90
2021/10/08 19:11:15;;;;;;;;;;;;;;;8.02;51.78;101588.23;1395239;88;20261;-88
2021/10/08 19:21:37;;;;;;;;;;;;;;;7.54;51.09;101602.39;1388780;89;21166;-87
2021/10/08 19:24:05;;;;;;;;;;;;;;;7.42;51.01;101604.48;1383736;89;20334;-87
2021/10/08 19:26:32;;;;;;;;;;;;;;;7.37;51.18;101606.59;1363547;91;20343;-88
2021/10/08 19:28:59;;;;;;;;;;;;;;;7.31;50.97;101606.50;1358828;90;20255;-88
2021/10/08 19:31:25;;;;;;;;;;;;;;;7.28;50.87;101608.02;1358043;92;20344;-87
2021/10/08 19:33:51;;;;;;;;;;;;;;;7.30;50.93;101610.54;1368993;91;20315;-88
2021/10/08 19:36:17;;;;;;;;;;;;;;;7.27;51.19;101612.05;1375620;91;20234;-88
2021/10/08 19:38:44;;;;;;;;;;;;;;;7.29;50.98;101612.81;1376740;90;20747;-88
2021/10/08 19:41:10;;;;;;;;;;;;;;;7.28;51.11;101622.95;1376804;89;20226;-87
2021/10/08 19:43:36;;;;;;;;;;;;;;;7.23;50.81;101616.67;1349749;91;20971;-89
2021/10/08 19:48:39;;;;;;;;;;;;;;;7.15;50.94;101628.99;1374342;93;20754;-88
2021/10/08 19:51:06;;;;;;;;;;;;;;;7.07;51.67;101627.30;1361436;90;21154;-87
2021/10/08 19:53:32;;;;;;;;;;;;;;;6.98;51.69;101631.83;1358762;91;20408;-87
2021/10/08 19:55:59;;;;;;;;;;;;;;;6.91;53.12;101633.17;1371576;91;20256;-88
2021/10/08 19:58:25;;;;;;;;;;;;;;;6.80;51.90;101632.98;1376903;89;20279;-87
2021/10/08 20:00:51;;;;;;;;;;;;;;;6.69;51.82;101627.88;1377282;89;20241;-87
2021/10/08 20:03:18;;;;;;;;;;;;;;;6.60;52.48;101632.39;1360032;89;20336;-87
2021/10/08 20:05:52;;;;;;;;;;;;;;;6.46;52.57;101636.32;1338012;93;20247;-88
2021/10/08 20:16:13;;;;;;;;;;;;;;;6.19;52.34;101640.97;1357788;91;21147;-87
2021/10/08 20:18:39;;;;;;;;;;;;;;;6.20;52.62;101641.80;1367396;90;20338;-88
2021/10/08 20:21:06;;;;;;;;;;;;;;;6.14;52.65;101641.69;1367430;90;20258;-88
2021/10/08 20:23:32;;;;;;;;;;;;;;;6.16;53.16;101645.53;1363476;90;20267;-88
2021/10/08 20:25:59;;;;;;;;;;;;;;;6.14;53.13;101638.22;1355803;92;20288;-87
2021/10/08 20:28:25;;;;;;;;;;;;;;;6.14;52.66;101644.32;1359119;90;20257;-87
2021/10/08 20:30:51;;;;;;;;;;;;;;;6.15;52.67;101642.06;1348145;91;20740;-88
2021/10/08 20:33:18;;;;;;;;;;;;;;;6.14;52.78;101646.95;1338712;91;20259;-87
2021/10/08 20:35:45;;;;;;;;;;;;;;;6.16;52.94;101646.41;1358980;89;20740;-87
2021/10/08 20:38:11;;;;;;;;;;;;;;;6.15;52.92;101646.48;1354998;90;20249;-88
2021/10/08 20:40:37;;;;;;;;;;;;;;;6.13;53.31;101650.53;1368039;89;20257;-87
2021/10/08 20:43:03;;;;;;;;;;;;;;;6.07;53.26;101651.72;1367854;90;20844;-87
2021/10/08 20:45:29;;;;;;;;;;;;;;;6.04;53.30;101651.03;1367466;90;20369;-88
2021/10/08 20:47:55;;;;;;;;;;;;;;;6.02;53.31;101656.39;1367615;90;20323;-87
2021/10/08 20:50:21;;;;;;;;;;;;;;;6.01;54.30;101657.78;1367828;90;20748;-86
2021/10/08 20:52:47;;;;;;;;;;;;;;;5.98;53.33;101660.59;1367909;90;20807;-87
2021/10/08 20:55:14;;;;;;;;;;;;;;;5.96;54.41;101667.27;1367414;90;20264;-88
2021/10/08 20:57:40;;;;;;;;;;;;;;;5.92;53.78;101670.10;1367547;90;20882;-87
2021/10/08 21:00:08;;;;;;;;;;;;;;;5.86;53.32;101675.23;1367708;90;20303;-88
2021/10/08 21:02:34;;;;;;;;;;;;;;;5.75;53.34;101673.20;1367170;91;20242;-88
2021/10/08 21:05:00;;;;;;;;;;;;;;;5.73;54.06;101680.83;1367490;90;20236;-87
2021/10/08 21:07:28;;;;;;;;;;;;;;;5.64;53.73;101684.34;1367536;90;21198;-88
2021/10/08 21:09:55;;;;;;;;;;;;;;;5.59;54.39;101688.15;1367550;90;20249;-87
2021/10/08 21:12:24;;;;;;;;;;;;;;;5.53;54.17;101693.73;1367798;90;20279;-86
2021/10/08 21:14:51;;;;;;;;;;;;;;;5.47;55.72;101695.36;1367367;91;20234;-87